Tubarao Do Mar — CSYX3 — position and weather

sailwx.info

Track history (hours):
 
Tides and Currents Weather Stations Pressure Air Temp Water Temp Dewpoint Dewpoint Depression Visibility Wind Speed Wind Dir Waves Ship Positions

Tubarao Do Mar

Last reported at 2018-May-22 08:22 UTC. Time now 2018-May-22 10:11 UTC.
Position N 38°42' W 009°11'.

Length 16 m.

Type: Passenger vessel. MMSI: 263673884.

Date/timePositionNaut miles runAvg speedWind from/ knotsBaromVisibWave heightAir tempDewpointWater temp
2018-May-22 08:22N 38°42' W 009°11'0 0.0
2018-May-22 07:55N 38°42' W 009°11'0 0.0
2018-May-21 22:26N 38°42' W 009°11'0 0.0
2018-May-21 19:14N 38°42' W 009°11'0 0.0
2018-May-21 18:50N 38°42' W 009°11'0 0.0
2018-May-21 14:59N 38°42' W 009°11'2 4.3
2018-May-21 14:30N 38°41' W 009°13'2 0.3
2018-May-21 08:20N 38°42' W 009°11'0 0.0
2018-May-21 04:56N 38°42' W 009°11'0 0.0
2018-May-20 19:50N 38°42' W 009°11'0 0.0
2018-May-20 19:17N 38°42' W 009°11'0 0.0
2018-May-20 18:50N 38°42' W 009°11'0 0.0
2018-May-20 17:08N 38°42' W 009°11'0 0.0
2018-May-20 16:05N 38°42' W 009°11'0 0.0
2018-May-20 15:44N 38°42' W 009°11'0 0.0
2018-May-20 15:26N 38°42' W 009°11'0 0.0
2018-May-20 13:56N 38°42' W 009°11'0 0.0
2018-May-20 09:32N 38°42' W 009°11'0 0.0
2018-May-20 09:26N 38°42' W 009°11'0 0.0
2018-May-19 18:06N 38°42' W 009°11'2 7.1
2018-May-19 17:52N 38°41' W 009°13'3 8.7
2018-May-19 17:30N 38°42' W 009°17'4 7.6
2018-May-19 16:57N 38°41' W 009°22'2 3.3
2018-May-19 16:21N 38°42' W 009°25'0 0.0
2018-May-19 15:51N 38°42' W 009°25'3 6.0
2018-May-19 15:20N 38°41' W 009°21'2 7.4
2018-May-19 15:00N 38°41' W 009°18'5 8.3
2018-May-19 14:24N 38°42' W 009°12'1 0.3
2018-May-19 12:00N 38°42' W 009°11'0 0.1
2018-May-19 10:33N 38°42' W 009°10'2 7.6
2018-May-19 10:21N 38°42' W 009°12'2 7.1
2018-May-19 10:00N 38°41' W 009°15'3 5.6
2018-May-19 09:30N 38°40' W 009°18'1 1.2
2018-May-19 08:44N 38°41' W 009°19'0 0.0
2018-May-19 08:26N 38°41' W 009°19'2 4.3
2018-May-19 07:58N 38°41' W 009°16'5 4.6
2018-May-19 06:56N 38°42' W 009°11'0 0.0
2018-May-19 06:29N 38°42' W 009°11'0 0.0
2018-May-19 05:59N 38°42' W 009°11'0 0.0
2018-May-19 03:59N 38°42' W 009°11'0 0.0
2018-May-18 21:56N 38°42' W 009°11'0 0.0
2018-May-18 20:23N 38°42' W 009°11'0 0.0
2018-May-18 19:41N 38°42' W 009°11'0 0.0
2018-May-18 18:47N 38°42' W 009°11'0 0.0
2018-May-18 18:05N 38°42' W 009°11'0 0.0
2018-May-18 14:41N 38°42' W 009°11'0 0.0
2018-May-18 10:41N 38°42' W 009°11'0 0.0
2018-May-18 10:11N 38°42' W 009°11'0 0.0
2018-May-18 06:35N 38°42' W 009°11'0 0.0
2018-May-18 05:11N 38°42' W 009°11'0 0.0
2018-May-18 04:23N 38°42' W 009°11'0 0.0
2018-May-18 02:23N 38°42' W 009°11'0 0.0
2018-May-18 01:38N 38°42' W 009°11'0 0.0
2018-May-18 01:23N 38°42' W 009°11'0 0.0
2018-May-18 00:59N 38°42' W 009°11'0 0.0
2018-May-17 16:20N 38°42' W 009°11'0 0.0
2018-May-17 15:44N 38°42' W 009°11'0 0.0
2018-May-17 14:05N 38°42' W 009°11'0 0.0
2018-May-17 06:11N 38°42' W 009°11'0 0.0
2018-May-17 05:53N 38°42' W 009°11'0 0.0
2018-May-17 04:32N 38°42' W 009°11'0 0.0
2018-May-17 04:29N 38°42' W 009°11'0 0.0
2018-May-17 03:53N 38°42' W 009°11'0 0.0
2018-May-16 17:38N 38°42' W 009°11'0 0.0
2018-May-16 12:47N 38°42' W 009°11'0 0.0
2018-May-16 11:32N 38°42' W 009°11'0 0.0
2018-May-16 11:14N 38°42' W 009°11'0 0.0
2018-May-16 08:56N 38°42' W 009°11'0 0.0
2018-May-16 08:29N 38°42' W 009°11'0 0.0
2018-May-16 06:05N 38°42' W 009°11'0 0.0
2018-May-16 05:53N 38°42' W 009°11'0 0.0
2018-May-16 05:29N 38°42' W 009°11'0 0.0
2018-May-16 01:53N 38°42' W 009°11'0 0.0
2018-May-16 01:29N 38°42' W 009°11'0 0.0
2018-May-15 19:01N 38°42' W 009°11'0 0.0
2018-May-15 18:31N 38°42' W 009°11'0 0.0
2018-May-15 13:28N 38°42' W 009°11'  
Track history (hours):
 
Tides and Currents Weather Stations Pressure Air Temp Water Temp Dewpoint Dewpoint Depression Visibility Wind Speed Wind Dir Waves Ship Positions

Tubarao Do Mar

Last reported at 2018-May-22 08:22 UTC. Time now 2018-May-22 10:11 UTC.
Position N 38°42' W 009°11'.

Length 16 m.

Type: Passenger vessel. MMSI: 263673884.

Date/timePositionNaut miles runAvg speedWind from/ knotsBaromVisibWave heightAir tempDewpointWater temp
2018-May-22 08:22N 38°42' W 009°11'0 0.0
2018-May-22 07:55N 38°42' W 009°11'0 0.0
2018-May-21 22:26N 38°42' W 009°11'0 0.0
2018-May-21 19:14N 38°42' W 009°11'0 0.0
2018-May-21 18:50N 38°42' W 009°11'0 0.0
2018-May-21 14:59N 38°42' W 009°11'2 4.3
2018-May-21 14:30N 38°41' W 009°13'2 0.3
2018-May-21 08:20N 38°42' W 009°11'0 0.0
2018-May-21 04:56N 38°42' W 009°11'0 0.0
2018-May-20 19:50N 38°42' W 009°11'0 0.0
2018-May-20 19:17N 38°42' W 009°11'0 0.0
2018-May-20 18:50N 38°42' W 009°11'0 0.0
2018-May-20 17:08N 38°42' W 009°11'0 0.0
2018-May-20 16:05N 38°42' W 009°11'0 0.0
2018-May-20 15:44N 38°42' W 009°11'0 0.0
2018-May-20 15:26N 38°42' W 009°11'0 0.0
2018-May-20 13:56N 38°42' W 009°11'0 0.0
2018-May-20 09:32N 38°42' W 009°11'0 0.0
2018-May-20 09:26N 38°42' W 009°11'0 0.0
2018-May-19 18:06N 38°42' W 009°11'2 7.1
2018-May-19 17:52N 38°41' W 009°13'3 8.7
2018-May-19 17:30N 38°42' W 009°17'4 7.6
2018-May-19 16:57N 38°41' W 009°22'2 3.3
2018-May-19 16:21N 38°42' W 009°25'0 0.0
2018-May-19 15:51N 38°42' W 009°25'3 6.0
2018-May-19 15:20N 38°41' W 009°21'2 7.4
2018-May-19 15:00N 38°41' W 009°18'5 8.3
2018-May-19 14:24N 38°42' W 009°12'1 0.3
2018-May-19 12:00N 38°42' W 009°11'0 0.1
2018-May-19 10:33N 38°42' W 009°10'2 7.6
2018-May-19 10:21N 38°42' W 009°12'2 7.1
2018-May-19 10:00N 38°41' W 009°15'3 5.6
2018-May-19 09:30N 38°40' W 009°18'1 1.2
2018-May-19 08:44N 38°41' W 009°19'0 0.0
2018-May-19 08:26N 38°41' W 009°19'2 4.3
2018-May-19 07:58N 38°41' W 009°16'5 4.6
2018-May-19 06:56N 38°42' W 009°11'0 0.0
2018-May-19 06:29N 38°42' W 009°11'0 0.0
2018-May-19 05:59N 38°42' W 009°11'0 0.0
2018-May-19 03:59N 38°42' W 009°11'0 0.0
2018-May-18 21:56N 38°42' W 009°11'0 0.0
2018-May-18 20:23N 38°42' W 009°11'0 0.0
2018-May-18 19:41N 38°42' W 009°11'0 0.0
2018-May-18 18:47N 38°42' W 009°11'0 0.0
2018-May-18 18:05N 38°42' W 009°11'0 0.0
2018-May-18 14:41N 38°42' W 009°11'0 0.0
2018-May-18 10:41N 38°42' W 009°11'0 0.0
2018-May-18 10:11N 38°42' W 009°11'0 0.0
2018-May-18 06:35N 38°42' W 009°11'0 0.0
2018-May-18 05:11N 38°42' W 009°11'0 0.0
2018-May-18 04:23N 38°42' W 009°11'0 0.0
2018-May-18 02:23N 38°42' W 009°11'0 0.0
2018-May-18 01:38N 38°42' W 009°11'0 0.0
2018-May-18 01:23N 38°42' W 009°11'0 0.0
2018-May-18 00:59N 38°42' W 009°11'0 0.0
2018-May-17 16:20N 38°42' W 009°11'0 0.0
2018-May-17 15:44N 38°42' W 009°11'0 0.0
2018-May-17 14:05N 38°42' W 009°11'0 0.0
2018-May-17 06:11N 38°42' W 009°11'0 0.0
2018-May-17 05:53N 38°42' W 009°11'0 0.0
2018-May-17 04:32N 38°42' W 009°11'0 0.0
2018-May-17 04:29N 38°42' W 009°11'0 0.0
2018-May-17 03:53N 38°42' W 009°11'0 0.0
2018-May-16 17:38N 38°42' W 009°11'0 0.0
2018-May-16 12:47N 38°42' W 009°11'0 0.0
2018-May-16 11:32N 38°42' W 009°11'0 0.0
2018-May-16 11:14N 38°42' W 009°11'0 0.0
2018-May-16 08:56N 38°42' W 009°11'0 0.0
2018-May-16 08:29N 38°42' W 009°11'0 0.0
2018-May-16 06:05N 38°42' W 009°11'0 0.0
2018-May-16 05:53N 38°42' W 009°11'0 0.0
2018-May-16 05:29N 38°42' W 009°11'0 0.0
2018-May-16 01:53N 38°42' W 009°11'0 0.0
2018-May-16 01:29N 38°42' W 009°11'0 0.0
2018-May-15 19:01N 38°42' W 009°11'0 0.0
2018-May-15 18:31N 38°42' W 009°11'0 0.0
2018-May-15 13:28N 38°42' W 009°11'  

Dump ship's entire track history